Observations for ABERDEEN DYCE, United Kingdom (EGPD)

EGPD 140820Z AUTO VRB02KT 9999 NCD 17/12 Q1008 NOSIG
EGPD 140750Z VRB01KT 9999 FEW025 17/12 Q1008 NOSIG  
EGPD 140720Z VRB01KT 9999 FEW026 16/13 Q1008 NOSIG  
EGPD 140650Z VRB02KT 9999 SCT026 15/13 Q1009 NOSIG  
EGPD 140620Z AUTO VRB02KT 9999 FEW025 14/12 Q1009 NOSIG 
EGPD 140550Z VRB03KT 9999 FEW042 14/12 Q1009 NOSIG  
EGPD 140520Z AUTO VRB03KT 9999 OVC042 14/13 Q1009 NOSIG 
EGPD 140450Z AUTO VRB03KT 9999 OVC043 13/12 Q1009 NOSIG 
EGPD 140420Z AUTO 04001KT 9999 BKN042 12/12 Q1008 NOSIG 
EGPD 140350Z AUTO VRB01KT 9999 SCT048 13/11 Q1008 NOSIG 
EGPD 140320Z AUTO 19003KT 9999 OVC046 14/12 Q1009 NOSIG 
EGPD 140250Z AUTO VRB03KT 9999 OVC035 14/12 Q1009 NOSIG 
EGPD 140220Z AUTO 22005KT 9999 OVC038 14/12 Q1009 NOSIG 
EGPD 140150Z AUTO 23005KT 9999 BKN038 14/12 Q1009 NOSIG 
EGPD 140120Z AUTO VRB02KT 9999 FEW039 SCT045 14/12 Q1009 NOSIG  
EGPD 140050Z AUTO VRB03KT 9999 NCD 13/11 Q1009 NOSIG
EGPD 140020Z AUTO 13003KT 9999 SCT048 13/11 Q1009 NOSIG 
EGPD 132350Z AUTO 14004KT 9999 NCD 13/11 Q1009 NOSIG
EGPD 132320Z AUTO 16006KT 9999 NCD 12/11 Q1009 NOSIG
EGPD 132250Z AUTO 18005KT 9999 NCD 12/11 Q1009 NOSIG
EGPD 132220Z AUTO 18006KT 9999 NCD 13/11 Q1009 NOSIG
EGPD 132150Z AUTO 18005KT 9999 SCT018 14/12 Q1009 NOSIG 
EGPD 132120Z AUTO 16006KT 9999 NCD 14/12 Q1009 NOSIG
EGPD 132050Z AUTO 17006KT 9999 SCT018 14/12 Q1009 NOSIG 
EGPD 132020Z AUTO 16006KT 9999 BKN018 14/11 Q1009 NOSIG 
EGPD 131950Z AUTO 13004KT 9999 OVC019 15/12 Q1009 NOSIG 
EGPD 131920Z AUTO 11004KT 9999 BKN021 15/11 Q1009 NOSIG 
EGPD 131850Z AUTO 12005KT 9999 BKN023 OVC049 15/11 Q1009 NOSIG  
EGPD 131820Z AUTO 13005KT 9999 BKN023 OVC049 15/11 Q1009 NOSIG  
EGPD 131750Z AUTO 11005KT 070V150 9999 NCD 15/11 Q1009 NOSIG
EGPD 131720Z AUTO 11005KT 080V140 9999 NCD 15/11 Q1009 NOSIG
EGPD 131650Z AUTO 08005KT 050V110 9999 SCT043 16/11 Q1009 NOSIG 
EGPD 131620Z AUTO 10005KT 070V130 9999 NCD 16/11 Q1009 NOSIG
EGPD 131550Z AUTO 10005KT 060V130 9999 NCD 16/11 Q1009 NOSIG
EGPD 131520Z AUTO 10005KT 050V150 9999 FEW047 16/11 Q1009 NOSIG 
EGPD 131450Z AUTO 10006KT 9999 BKN047 16/11 Q1009 NOSIG 
EGPD 131420Z AUTO 09007KT 050V110 9999 NCD 16/11 Q1009 NOSIG
EGPD 131350Z AUTO 10006KT 060V130 9999 SCT021 BKN030 16/12 Q1009 NOSIG  
EGPD 131320Z AUTO 10007KT 040V140 9999 BKN030 16/12 Q1009 NOSIG 
EGPD 131250Z AUTO 09007KT 9999 BKN030 16/12 Q1009 NOSIG 
EGPD 131220Z AUTO 07007KT 050V110 9999 FEW016 OVC029 15/12 Q1009 NOSIG  
EGPD 131150Z AUTO 07007KT 040V100 9999 OVC029 16/12 Q1009 NOSIG 
EGPD 131120Z AUTO 08007KT 9999 FEW012 OVC029 15/12 Q1009 NOSIG  
EGPD 131050Z AUTO 09006KT 050V120 9999 FEW012 SCT020 OVC030 15/12 Q1009 NOSIG   
EGPD 131020Z AUTO 08007KT 050V120 9999 FEW010 OVC030 15/12 Q1009 NOSIG  
EGPD 130950Z AUTO 08006KT 9999 OVC030 14/12 Q1009 NOSIG 
EGPD 130920Z 07006KT 9999 FEW021 OVC030 14/12 Q1009 NOSIG   
EGPD 130850Z AUTO 07004KT 040V100 9999 -RA BKN021 OVC028 14/12 Q1009 NOSIG  
EGPD 130820Z VRB03KT 9999 -RA FEW006 BKN013 13/12 Q1009 NOSIG   
EGPD 130750Z 07005KT 6000 -RA SCT005 BKN010 BKN015 13/12 Q1009 RERA TEMPO 4000 RA